Time;durP1;ratioP1;P1;durP2;ratioP2;P2;SDS_P1;SDS_P2;PMS_P1;PMS_P2;Temp;Humidity;BMP_temperature;BMP_pressure;BME280_temperature;BME280_humidity;BME280_pressure;Samples;Min_cycle;Max_cycle;Signal;HPM_P1;HPM_P2
2021/12/08 00:02:25;;;;;;;;;;;;;;;1.97;72.53;93990.75;4891784;29;19920;-83
2021/12/08 00:04:50;;;;;;;;;;;;;;;1.89;71.32;93996.88;4909362;29;19919;-83
2021/12/08 00:07:15;;;;;;;;;;;;;;;1.86;73.64;93992.13;4899118;29;19923;-83
2021/12/08 00:14:50;;;;;;;;;;;;;;;1.78;73.63;94005.94;4890885;29;19934;-82
2021/12/08 00:17:15;;;;;;;;;;;;;;;1.83;72.40;94009.69;4910776;29;19919;-83
2021/12/08 00:19:40;;;;;;;;;;;;;;;1.77;72.73;94004.34;4891277;29;19967;-82
2021/12/08 00:22:06;;;;;;;;;;;;;;;1.76;72.67;94013.03;4892915;29;19923;-82
2021/12/08 00:24:54;;;;;;;;;;;;;;;1.75;72.48;94019.16;4894433;29;19948;-83
2021/12/08 00:27:20;;;;;;;;;;;;;;;1.74;72.92;94015.00;4886101;29;19927;-82
2021/12/08 00:29:45;;;;;;;;;;;;;;;1.72;72.30;94021.31;4893671;29;19998;-83
2021/12/08 00:32:11;;;;;;;;;;;;;;;1.68;71.69;94020.94;4892688;29;19927;-84
2021/12/08 00:34:38;;;;;;;;;;;;;;;1.64;73.87;94030.00;4891999;29;19920;-82
2021/12/08 00:37:03;;;;;;;;;;;;;;;1.66;72.90;94027.25;4891535;29;20318;-83
2021/12/08 00:39:29;;;;;;;;;;;;;;;1.65;72.67;94029.00;4905816;29;19924;-83
2021/12/08 00:41:54;;;;;;;;;;;;;;;1.68;72.02;94030.38;4889427;29;20368;-83
2021/12/08 00:44:19;;;;;;;;;;;;;;;1.71;73.69;94035.13;4906182;29;20014;-82
2021/12/08 00:46:45;;;;;;;;;;;;;;;1.76;71.64;94048.91;4889956;29;20378;-83
2021/12/08 00:49:12;;;;;;;;;;;;;;;1.79;70.95;94043.41;4892398;29;19927;-83
2021/12/08 00:51:37;;;;;;;;;;;;;;;1.78;71.92;94036.69;4888434;29;20281;-82
2021/12/08 00:54:02;;;;;;;;;;;;;;;1.85;72.02;94046.16;4888560;29;19952;-82
2021/12/08 00:56:28;;;;;;;;;;;;;;;1.85;70.75;94051.28;4889973;29;20303;-82
2021/12/08 00:58:54;;;;;;;;;;;;;;;1.90;71.19;94042.03;4889961;29;19926;-82
2021/12/08 01:01:19;;;;;;;;;;;;;;;1.86;71.36;94040.84;4892315;29;19927;-82
2021/12/08 01:03:46;;;;;;;;;;;;;;;1.80;70.13;94039.88;4906386;29;19930;-81
2021/12/08 01:06:13;;;;;;;;;;;;;;;1.77;70.62;94040.22;4890019;29;19930;-82
2021/12/08 01:08:39;;;;;;;;;;;;;;;1.79;70.45;94040.06;4889362;29;19943;-82
2021/12/08 01:11:05;;;;;;;;;;;;;;;1.79;70.09;94051.09;4891017;29;20387;-82
2021/12/08 01:13:31;;;;;;;;;;;;;;;1.69;69.67;94053.25;4892033;29;19982;-81
2021/12/08 01:15:56;;;;;;;;;;;;;;;1.60;70.46;94051.84;4890758;29;19920;-82
2021/12/08 01:18:22;;;;;;;;;;;;;;;1.52;71.69;94052.06;4893890;29;19924;-82
2021/12/08 01:20:47;;;;;;;;;;;;;;;1.49;70.92;94045.53;4890968;29;20424;-82
2021/12/08 01:23:12;;;;;;;;;;;;;;;1.45;72.15;94051.22;4899221;29;20359;-83
2021/12/08 01:25:38;;;;;;;;;;;;;;;1.43;71.79;94042.97;4899118;29;19927;-83
2021/12/08 01:28:03;;;;;;;;;;;;;;;1.46;71.24;94045.13;4908118;29;20475;-82
2021/12/08 01:30:28;;;;;;;;;;;;;;;1.47;71.73;94051.84;4899284;29;19931;-82
2021/12/08 01:32:55;;;;;;;;;;;;;;;1.48;71.27;94056.00;4893870;29;20508;-82
2021/12/08 01:35:21;;;;;;;;;;;;;;;1.47;71.31;94054.41;4893835;29;19919;-82
2021/12/08 01:37:46;;;;;;;;;;;;;;;1.47;71.87;94056.97;4893237;29;20010;-82
2021/12/08 01:40:12;;;;;;;;;;;;;;;1.54;71.28;94055.22;4892047;29;20021;-82
2021/12/08 01:42:43;;;;;;;;;;;;;;;1.58;70.76;94056.38;4892685;29;19980;-81
2021/12/08 01:47:53;;;;;;;;;;;;;;;1.64;72.21;94052.28;4909344;29;19922;-81
2021/12/08 01:50:18;;;;;;;;;;;;;;;1.68;71.49;94059.38;4908054;29;19920;-80
2021/12/08 01:52:44;;;;;;;;;;;;;;;1.69;70.47;94066.06;4912782;29;20010;-82
2021/12/08 01:55:10;;;;;;;;;;;;;;;1.72;70.86;94064.88;4894587;29;19919;-81
2021/12/08 01:57:36;;;;;;;;;;;;;;;1.70;69.92;94066.84;4893423;29;19926;-83
2021/12/08 02:00:02;;;;;;;;;;;;;;;1.70;71.09;94085.59;4893975;29;19962;-82
2021/12/08 02:02:27;;;;;;;;;;;;;;;1.71;70.54;94071.78;4906636;29;19930;-82
2021/12/08 02:04:52;;;;;;;;;;;;;;;1.71;70.44;94071.78;4889288;29;19983;-82
2021/12/08 02:07:17;;;;;;;;;;;;;;;1.73;70.57;94080.06;4892342;29;20383;-81
2021/12/08 02:09:43;;;;;;;;;;;;;;;1.77;69.85;94078.69;4892240;29;19979;-81
2021/12/08 02:12:09;;;;;;;;;;;;;;;1.70;71.15;94077.09;4908729;29;19919;-80
2021/12/08 02:14:34;;;;;;;;;;;;;;;1.66;71.84;94081.06;4899403;29;19915;-79
2021/12/08 02:17:00;;;;;;;;;;;;;;;1.67;70.63;94088.53;4902346;29;20002;-79
2021/12/08 02:19:25;;;;;;;;;;;;;;;1.67;70.61;94088.53;4912085;29;19916;-81
2021/12/08 02:21:52;;;;;;;;;;;;;;;1.67;70.13;94092.88;4891973;29;19924;-83
2021/12/08 02:24:17;;;;;;;;;;;;;;;1.64;70.50;94091.50;4891400;29;19922;-83
2021/12/08 02:26:43;;;;;;;;;;;;;;;1.70;70.71;94090.72;4889401;29;19919;-83
2021/12/08 02:29:12;;;;;;;;;;;;;;;1.70;70.49;94100.97;4889928;29;19963;-83
2021/12/08 02:31:52;;;;;;;;;;;;;;;1.73;70.38;94103.13;4889911;29;19930;-83
2021/12/08 02:47:58;;;;;;;;;;;;;;;1.63;70.87;94107.84;4897516;29;19975;-79
2021/12/08 02:50:25;;;;;;;;;;;;;;;1.61;70.83;94107.25;4894536;29;19927;-82
2021/12/08 02:52:51;;;;;;;;;;;;;;;1.53;71.03;94102.31;4898081;29;19920;-82
2021/12/08 02:55:16;;;;;;;;;;;;;;;1.49;72.02;94108.81;4897860;29;19926;-81
2021/12/08 02:57:41;;;;;;;;;;;;;;;1.47;72.70;94105.66;4892482;29;19923;-81
2021/12/08 03:00:07;;;;;;;;;;;;;;;1.53;72.18;94109.19;4898362;29;19951;-81
2021/12/08 03:02:33;;;;;;;;;;;;;;;1.57;71.21;94111.19;4891121;29;19920;-81
2021/12/08 03:04:58;;;;;;;;;;;;;;;1.52;71.52;94108.41;4890647;29;19919;-82
2021/12/08 03:07:23;;;;;;;;;;;;;;;1.46;72.21;94109.16;4891578;29;19919;-82
2021/12/08 03:09:49;;;;;;;;;;;;;;;1.50;72.34;94111.19;4888137;29;20406;-82
2021/12/08 03:12:14;;;;;;;;;;;;;;;1.43;71.79;94110.34;4890030;29;19919;-82
2021/12/08 03:14:40;;;;;;;;;;;;;;;1.45;72.22;94107.59;4889805;29;19927;-82
2021/12/08 03:17:06;;;;;;;;;;;;;;;1.49;71.85;94103.69;4889967;29;19951;-82
2021/12/08 03:19:32;;;;;;;;;;;;;;;1.46;71.89;94114.28;4890598;29;19920;-81
2021/12/08 03:21:57;;;;;;;;;;;;;;;1.50;72.31;94118.06;4889150;29;19919;-81
2021/12/08 03:24:36;;;;;;;;;;;;;;;1.53;71.55;94117.69;4889635;29;19920;-81
2021/12/08 03:29:32;;;;;;;;;;;;;;;1.58;71.36;94124.78;4888250;29;19924;-83
2021/12/08 03:32:05;;;;;;;;;;;;;;;1.61;71.63;94124.38;4891431;29;19919;-82
2021/12/08 03:34:32;;;;;;;;;;;;;;;1.58;71.41;94129.91;4890655;29;19942;-83
2021/12/08 03:36:57;;;;;;;;;;;;;;;1.61;70.87;94132.88;4889572;29;19919;-81
2021/12/08 03:39:22;;;;;;;;;;;;;;;1.59;71.15;94127.16;4888568;29;19935;-83
2021/12/08 03:41:48;;;;;;;;;;;;;;;1.60;71.48;94136.41;4891877;29;19919;-82
2021/12/08 03:44:13;;;;;;;;;;;;;;;1.64;71.33;94137.63;4892780;29;19927;-81
2021/12/08 03:46:41;;;;;;;;;;;;;;;1.70;71.84;94139.41;4900267;29;19920;-81
2021/12/08 03:49:10;;;;;;;;;;;;;;;1.77;70.80;94153.00;4915283;29;19971;-82
2021/12/08 03:51:35;;;;;;;;;;;;;;;1.76;70.96;94146.31;4899642;29;19927;-82
2021/12/08 03:54:01;;;;;;;;;;;;;;;1.84;70.73;94147.13;4896982;29;19920;-82
2021/12/08 03:56:26;;;;;;;;;;;;;;;1.83;70.67;94155.81;4899129;29;19926;-82
2021/12/08 03:58:52;;;;;;;;;;;;;;;1.82;70.50;94157.56;4898389;29;19931;-85
2021/12/08 04:01:17;;;;;;;;;;;;;;;1.86;70.21;94155.41;4911351;29;20501;-87
2021/12/08 04:03:49;;;;;;;;;;;;;;;1.82;70.07;94165.28;4902435;29;19923;-87
2021/12/08 04:06:27;;;;;;;;;;;;;;;1.77;70.46;94158.13;4907443;29;19955;-86
2021/12/08 04:08:56;;;;;;;;;;;;;;;1.73;69.95;94156.94;4900590;29;19979;-87
2021/12/08 04:11:22;;;;;;;;;;;;;;;1.71;71.58;94166.59;4894012;29;19944;-87
2021/12/08 04:13:49;;;;;;;;;;;;;;;1.69;70.78;94166.03;4902138;29;19923;-87
2021/12/08 04:16:15;;;;;;;;;;;;;;;1.68;70.29;94169.56;4901369;29;19990;-87
2021/12/08 04:18:41;;;;;;;;;;;;;;;1.67;71.06;94165.44;4900775;29;19986;-84
2021/12/08 04:21:06;;;;;;;;;;;;;;;1.69;70.89;94162.66;4897145;29;19978;-87
2021/12/08 04:23:35;;;;;;;;;;;;;;;1.69;70.30;94160.91;4902587;29;19923;-87
2021/12/08 04:26:01;;;;;;;;;;;;;;;1.66;70.50;94171.53;4900425;29;20007;-85
2021/12/08 04:28:27;;;;;;;;;;;;;;;1.66;71.85;94179.22;4905835;29;19954;-83
2021/12/08 04:31:00;;;;;;;;;;;;;;;1.69;70.65;94176.28;4912990;29;19930;-87
2021/12/08 04:33:26;;;;;;;;;;;;;;;1.68;71.35;94184.94;4904605;29;19923;-86
2021/12/08 04:35:52;;;;;;;;;;;;;;;1.68;70.98;94179.81;4904922;29;19934;-86
2021/12/08 04:38:23;;;;;;;;;;;;;;;1.71;70.54;94194.81;4898344;29;19919;-87
2021/12/08 04:41:03;;;;;;;;;;;;;;;1.73;70.83;94187.72;4896942;29;19920;-86
2021/12/08 04:46:23;;;;;;;;;;;;;;;1.75;70.38;94201.13;4894622;29;19945;-87
2021/12/08 04:49:18;;;;;;;;;;;;;;;1.73;70.66;94207.44;4890645;29;19952;-83
2021/12/08 05:00:29;;;;;;;;;;;;;;;1.67;70.52;94216.69;4895465;29;20006;-81
2021/12/08 05:03:18;;;;;;;;;;;;;;;1.61;70.46;94217.44;4892706;29;19934;-80
2021/12/08 05:06:06;;;;;;;;;;;;;;;1.58;70.72;94220.38;4891815;29;19920;-81
2021/12/08 05:08:41;;;;;;;;;;;;;;;1.52;71.08;94235.72;4900211;29;20436;-80
2021/12/08 05:11:14;;;;;;;;;;;;;;;1.45;71.45;94231.34;4894853;29;20007;-83
2021/12/08 05:13:40;;;;;;;;;;;;;;;1.45;71.63;94239.03;4890612;29;20388;-87
2021/12/08 05:16:06;;;;;;;;;;;;;;;1.50;72.10;94243.59;4893316;29;19919;-87
2021/12/08 05:18:33;;;;;;;;;;;;;;;1.56;71.13;94242.03;4898046;29;19999;-88
2021/12/08 05:21:09;;;;;;;;;;;;;;;1.57;71.26;94244.41;4892495;29;19923;-84
2021/12/08 05:23:42;;;;;;;;;;;;;;;1.56;71.14;94253.09;4883227;29;19919;-85
2021/12/08 05:26:13;;;;;;;;;;;;;;;1.56;71.35;94254.84;4906126;29;19919;-85
2021/12/08 05:28:39;;;;;;;;;;;;;;;1.57;71.38;94249.53;4897809;29;19965;-86
2021/12/08 05:31:06;;;;;;;;;;;;;;;1.67;71.56;94255.13;4906734;29;19919;-84
2021/12/08 05:33:31;;;;;;;;;;;;;;;1.67;70.63;94254.31;4890463;29;19954;-87
2021/12/08 05:35:57;;;;;;;;;;;;;;;1.65;71.38;94244.28;4889631;29;20344;-84
2021/12/08 05:38:22;;;;;;;;;;;;;;;1.59;71.09;94257.81;4893679;29;19924;-84
2021/12/08 05:40:50;;;;;;;;;;;;;;;1.58;70.97;94263.16;4898518;29;20006;-84
2021/12/08 05:43:15;;;;;;;;;;;;;;;1.51;71.31;94263.13;4889926;29;19947;-83
2021/12/08 05:45:40;;;;;;;;;;;;;;;1.50;71.72;94267.47;4893305;29;20384;-85
2021/12/08 05:48:06;;;;;;;;;;;;;;;1.43;72.28;94273.50;4890003;29;19920;-85
2021/12/08 05:50:36;;;;;;;;;;;;;;;1.48;71.93;94281.44;4899141;29;19933;-85
2021/12/08 05:53:01;;;;;;;;;;;;;;;1.48;71.32;94276.31;4893158;29;20519;-84
2021/12/08 05:55:27;;;;;;;;;;;;;;;1.39;72.14;94282.56;4888862;29;20015;-78
2021/12/08 05:57:52;;;;;;;;;;;;;;;1.31;72.57;94269.91;4892387;29;19919;-82
2021/12/08 06:00:24;;;;;;;;;;;;;;;1.30;71.84;94274.25;4889145;29;20390;-84
2021/12/08 06:02:52;;;;;;;;;;;;;;;1.23;72.91;94285.41;4900132;29;19931;-85
2021/12/08 06:05:17;;;;;;;;;;;;;;;1.25;72.08;94286.00;4890113;29;19919;-84
2021/12/08 06:07:43;;;;;;;;;;;;;;;1.27;72.87;94289.16;4890761;29;20424;-80
2021/12/08 06:10:10;;;;;;;;;;;;;;;1.22;73.15;94302.53;4901825;29;19939;-79
2021/12/08 06:12:35;;;;;;;;;;;;;;;1.23;72.47;94304.13;4909848;29;19919;-78
2021/12/08 06:15:00;;;;;;;;;;;;;;;1.24;72.74;94312.59;4912431;29;19968;-78
2021/12/08 06:17:27;;;;;;;;;;;;;;;1.28;72.33;94313.81;4908675;29;19969;-79
2021/12/08 06:19:52;;;;;;;;;;;;;;;1.21;72.47;94321.44;4905320;29;19919;-80
2021/12/08 06:22:17;;;;;;;;;;;;;;;1.13;73.44;94319.81;4899563;29;20452;-79
2021/12/08 06:24:43;;;;;;;;;;;;;;;1.16;73.71;94324.56;4901076;29;19931;-79
2021/12/08 06:27:08;;;;;;;;;;;;;;;1.27;73.61;94320.69;4892658;29;19944;-80
2021/12/08 06:29:40;;;;;;;;;;;;;;;1.35;72.25;94317.22;4903139;29;19924;-79
2021/12/08 06:32:06;;;;;;;;;;;;;;;1.42;72.61;94318.03;4895737;29;19919;-80
2021/12/08 06:34:31;;;;;;;;;;;;;;;1.55;71.87;94323.25;4888221;29;19919;-79
2021/12/08 06:37:05;;;;;;;;;;;;;;;1.65;71.22;94326.28;4888075;29;19974;-79
2021/12/08 06:39:49;;;;;;;;;;;;;;;1.71;70.95;94333.19;4889218;29;19920;-79
2021/12/08 06:42:16;;;;;;;;;;;;;;;1.76;70.57;94328.28;4906272;29;19924;-79
2021/12/08 06:44:42;;;;;;;;;;;;;;;1.71;70.42;94328.06;4902878;29;19923;-79
2021/12/08 06:47:09;;;;;;;;;;;;;;;1.69;69.87;94324.13;4889142;29;19924;-79
2021/12/08 06:49:34;;;;;;;;;;;;;;;1.67;70.01;94314.06;4891587;29;19920;-79
2021/12/08 06:52:02;;;;;;;;;;;;;;;1.56;69.74;94324.84;4889847;29;19926;-79
2021/12/08 06:54:28;;;;;;;;;;;;;;;1.53;70.03;94324.44;4890962;29;19945;-79
2021/12/08 06:56:56;;;;;;;;;;;;;;;1.46;70.50;94324.38;4889583;29;19919;-77
2021/12/08 06:59:23;;;;;;;;;;;;;;;1.43;70.60;94320.41;4873272;29;19923;-78
2021/12/08 07:04:57;;;;;;;;;;;;;;;1.50;70.08;94328.16;4888492;29;19920;-78
2021/12/08 07:07:27;;;;;;;;;;;;;;;1.49;70.50;94324.00;4888177;29;19983;-78
2021/12/08 07:09:56;;;;;;;;;;;;;;;1.53;69.89;94327.78;4887439;29;20018;-78
2021/12/08 07:12:26;;;;;;;;;;;;;;;1.52;69.51;94336.44;4894989;29;19927;-78
2021/12/08 07:14:53;;;;;;;;;;;;;;;1.52;70.34;94333.09;4902987;29;19924;-78
2021/12/08 07:17:21;;;;;;;;;;;;;;;1.53;69.74;94335.47;4888115;29;19923;-78
2021/12/08 07:19:51;;;;;;;;;;;;;;;1.55;69.54;94335.28;4887726;29;19920;-78
2021/12/08 07:22:24;;;;;;;;;;;;;;;1.48;69.18;94337.81;4888448;29;19927;-78
2021/12/08 07:24:50;;;;;;;;;;;;;;;1.53;69.85;94350.03;4887298;29;19944;-78
2021/12/08 07:27:17;;;;;;;;;;;;;;;1.60;69.83;94349.09;4889087;29;19919;-78
2021/12/08 07:29:43;;;;;;;;;;;;;;;1.64;69.70;94346.97;4893538;29;20018;-79
2021/12/08 07:32:14;;;;;;;;;;;;;;;1.69;69.94;94355.66;4888213;29;19954;-78
2021/12/08 07:34:39;;;;;;;;;;;;;;;1.76;68.77;94355.69;4893879;29;19954;-78
2021/12/08 07:37:06;;;;;;;;;;;;;;;1.83;68.37;94355.75;4888324;29;20395;-79
2021/12/08 07:39:32;;;;;;;;;;;;;;;1.82;68.89;94367.00;4886228;29;19975;-78
2021/12/08 07:42:00;;;;;;;;;;;;;;;1.79;68.16;94366.38;4894756;29;19926;-79
2021/12/08 07:44:25;;;;;;;;;;;;;;;1.74;68.53;94360.22;4887431;29;20016;-79
2021/12/08 07:46:52;;;;;;;;;;;;;;;1.73;68.19;94364.56;4891025;29;19963;-79
2021/12/08 07:49:30;;;;;;;;;;;;;;;1.77;68.45;94368.31;4889097;29;19919;-80
2021/12/08 07:52:00;;;;;;;;;;;;;;;1.74;68.35;94373.81;4893377;29;20003;-78
2021/12/08 07:54:26;;;;;;;;;;;;;;;1.79;69.32;94383.53;4879502;29;19919;-78
2021/12/08 07:56:52;;;;;;;;;;;;;;;1.86;68.07;94375.88;4897116;29;19943;-78
2021/12/08 07:59:17;;;;;;;;;;;;;;;1.83;68.09;94382.19;4890775;29;19948;-78
2021/12/08 08:01:45;;;;;;;;;;;;;;;1.80;68.85;94373.09;4890605;29;19927;-78
2021/12/08 08:04:11;;;;;;;;;;;;;;;1.88;67.93;94386.72;4891321;29;20002;-78
2021/12/08 08:06:39;;;;;;;;;;;;;;;1.86;67.98;94396.38;4890637;29;19923;-78
2021/12/08 08:09:06;;;;;;;;;;;;;;;1.90;68.43;94403.50;4891442;29;19987;-78
2021/12/08 08:11:32;;;;;;;;;;;;;;;1.98;68.73;94394.88;4890551;29;20001;-79
2021/12/08 08:13:57;;;;;;;;;;;;;;;2.06;67.60;94410.09;4889921;29;19943;-78
2021/12/08 08:16:24;;;;;;;;;;;;;;;2.12;67.14;94406.81;4890810;29;20388;-78
2021/12/08 08:18:53;;;;;;;;;;;;;;;2.15;67.85;94403.84;4891952;29;19920;-78
2021/12/08 08:21:20;;;;;;;;;;;;;;;2.17;66.73;94409.59;4891404;29;19919;-78
2021/12/08 08:23:45;;;;;;;;;;;;;;;2.15;67.19;94405.63;4907015;29;19986;-79
2021/12/08 08:26:11;;;;;;;;;;;;;;;2.14;66.50;94399.72;4891070;29;19963;-78
2021/12/08 08:28:36;;;;;;;;;;;;;;;2.14;66.64;94409.97;4890883;29;19942;-82
2021/12/08 08:31:06;;;;;;;;;;;;;;;2.15;66.66;94408.97;4891243;29;19939;-78
2021/12/08 08:33:32;;;;;;;;;;;;;;;2.12;66.60;94413.72;4889840;29;19931;-79
2021/12/08 08:35:58;;;;;;;;;;;;;;;2.07;67.10;94407.34;4889576;29;19919;-79
2021/12/08 08:38:34;;;;;;;;;;;;;;;2.11;67.05;94407.75;4890546;29;19927;-79
2021/12/08 08:41:03;;;;;;;;;;;;;;;2.16;67.14;94408.00;4890194;29;19919;-79
2021/12/08 08:43:28;;;;;;;;;;;;;;;2.26;67.33;94410.19;4890863;29;19920;-78
2021/12/08 08:45:55;;;;;;;;;;;;;;;2.31;66.71;94411.22;4905859;29;19931;-78
2021/12/08 08:48:37;;;;;;;;;;;;;;;2.41;66.40;94411.66;4904928;29;19927;-79
2021/12/08 08:51:24;;;;;;;;;;;;;;;2.54;66.20;94405.78;4892462;29;19923;-78
2021/12/08 08:53:50;;;;;;;;;;;;;;;2.64;65.25;94405.44;4888758;29;19919;-78
2021/12/08 08:56:17;;;;;;;;;;;;;;;2.66;65.19;94398.34;4907080;29;19930;-78
2021/12/08 08:58:44;;;;;;;;;;;;;;;2.65;65.37;94404.44;4887337;29;19946;-77
2021/12/08 09:01:24;;;;;;;;;;;;;;;2.64;65.26;94400.31;4885953;29;20281;-77
2021/12/08 09:03:54;;;;;;;;;;;;;;;2.65;64.97;94394.97;4888991;29;19982;-77
2021/12/08 09:06:21;;;;;;;;;;;;;;;2.72;65.58;94393.22;4887294;29;19935;-77
2021/12/08 09:08:46;;;;;;;;;;;;;;;2.77;64.24;94384.16;4887019;29;19923;-78
2021/12/08 09:11:16;;;;;;;;;;;;;;;2.74;64.78;94385.31;4888331;29;20331;-78
2021/12/08 09:13:42;;;;;;;;;;;;;;;2.81;65.44;94386.13;4892048;29;19919;-78
2021/12/08 09:16:12;;;;;;;;;;;;;;;2.85;64.57;94387.31;4898728;29;19927;-78
2021/12/08 09:18:58;;;;;;;;;;;;;;;2.86;65.28;94388.09;4893526;29;19920;-78
2021/12/08 09:21:26;;;;;;;;;;;;;;;2.90;64.84;94377.25;4893964;29;19931;-79
2021/12/08 09:24:09;;;;;;;;;;;;;;;2.91;65.26;94370.34;4888489;29;19971;-78
2021/12/08 09:26:35;;;;;;;;;;;;;;;2.98;64.48;94360.88;4887268;29;19920;-78
2021/12/08 09:29:04;;;;;;;;;;;;;;;3.00;64.12;94354.56;4889845;29;19919;-78
2021/12/08 09:31:30;;;;;;;;;;;;;;;3.00;64.51;94349.41;4890980;29;20004;-79
2021/12/08 09:33:58;;;;;;;;;;;;;;;3.01;64.26;94358.69;4906510;29;19930;-78
2021/12/08 09:36:26;;;;;;;;;;;;;;;2.95;64.65;94359.50;4907513;29;19927;-78
2021/12/08 09:38:53;;;;;;;;;;;;;;;2.98;64.87;94353.97;4913889;29;19927;-78
2021/12/08 09:41:19;;;;;;;;;;;;;;;3.09;64.32;94351.78;4902107;29;20380;-79
2021/12/08 09:43:48;;;;;;;;;;;;;;;3.06;63.83;94347.03;4890333;29;20374;-78
2021/12/08 09:46:17;;;;;;;;;;;;;;;3.01;63.93;94347.63;4888879;29;20367;-78
2021/12/08 09:48:43;;;;;;;;;;;;;;;2.95;63.83;94346.66;4898891;29;19971;-78
2021/12/08 09:51:08;;;;;;;;;;;;;;;2.90;65.18;94343.88;4889760;29;19919;-78
2021/12/08 09:53:34;;;;;;;;;;;;;;;2.89;65.23;94344.84;4902636;29;19975;-77
2021/12/08 09:56:02;;;;;;;;;;;;;;;3.00;65.90;94339.16;4891403;29;19930;-77
2021/12/08 09:58:27;;;;;;;;;;;;;;;3.00;64.39;94338.34;4904182;29;19919;-78
2021/12/08 10:00:55;;;;;;;;;;;;;;;3.01;64.61;94348.44;4897539;29;19919;-79
2021/12/08 10:03:20;;;;;;;;;;;;;;;2.90;65.48;94341.28;4895934;29;19923;-78
2021/12/08 10:05:45;;;;;;;;;;;;;;;2.93;65.03;94338.38;4888362;29;19930;-78
2021/12/08 10:08:11;;;;;;;;;;;;;;;2.94;64.86;94342.50;4888616;29;19926;-78
2021/12/08 10:10:37;;;;;;;;;;;;;;;2.99;64.28;94342.69;4887119;29;19952;-78
2021/12/08 10:13:02;;;;;;;;;;;;;;;2.95;64.50;94340.72;4887992;29;19934;-78
2021/12/08 10:15:27;;;;;;;;;;;;;;;2.96;64.27;94353.38;4887334;29;19920;-78
2021/12/08 10:17:54;;;;;;;;;;;;;;;2.91;64.79;94354.94;4885621;29;19964;-78
2021/12/08 10:20:55;;;;;;;;;;;;;;;2.82;65.72;94356.91;4886286;29;19954;-78
2021/12/08 10:23:22;;;;;;;;;;;;;;;2.78;65.74;94345.44;4858359;29;19923;-78
2021/12/08 10:26:16;;;;;;;;;;;;;;;2.89;64.68;94346.63;4871850;29;19931;-77
2021/12/08 10:28:43;;;;;;;;;;;;;;;2.87;65.76;94339.13;4896848;29;19973;-78
2021/12/08 10:31:14;;;;;;;;;;;;;;;2.99;65.54;94342.69;4896732;29;19975;-78
2021/12/08 10:36:47;;;;;;;;;;;;;;;3.06;63.84;94336.75;4902250;29;19920;-78
2021/12/08 10:39:12;;;;;;;;;;;;;;;2.95;64.89;94340.72;4904369;29;19919;-78
2021/12/08 10:41:49;;;;;;;;;;;;;;;2.89;65.33;94326.09;4905865;29;19930;-77
2021/12/08 10:44:15;;;;;;;;;;;;;;;2.84;65.66;94333.59;4888584;29;19923;-78
2021/12/08 10:46:41;;;;;;;;;;;;;;;2.89;65.50;94332.00;4887425;29;19986;-78
2021/12/08 10:54:59;;;;;;;;;;;;;;;2.97;64.64;94334.41;4872827;29;19986;-78
2021/12/08 10:57:34;;;;;;;;;;;;;;;3.04;64.68;94333.59;4908848;29;19966;-78
2021/12/08 11:00:11;;;;;;;;;;;;;;;3.28;64.48;94338.16;4901588;29;19995;-77
2021/12/08 11:02:37;;;;;;;;;;;;;;;3.37;62.71;94324.13;4901062;29;19923;-77
2021/12/08 11:05:07;;;;;;;;;;;;;;;3.26;63.11;94332.44;4890616;29;20014;-77
2021/12/08 11:07:32;;;;;;;;;;;;;;;3.17;62.89;94323.34;4892651;29;19989;-77
2021/12/08 11:09:58;;;;;;;;;;;;;;;3.08;64.38;94327.09;4884988;29;20014;-77
2021/12/08 11:12:39;;;;;;;;;;;;;;;3.11;63.95;94324.94;4886064;29;20651;-77
2021/12/08 11:15:04;;;;;;;;;;;;;;;3.06;64.34;94331.63;4886456;29;19975;-77
2021/12/08 11:17:30;;;;;;;;;;;;;;;3.09;64.58;94331.22;4899765;29;20364;-77
2021/12/08 11:20:15;;;;;;;;;;;;;;;3.13;63.87;94340.16;4893262;29;19923;-78
2021/12/08 11:22:43;;;;;;;;;;;;;;;3.06;63.67;94341.91;4901960;29;19920;-77
2021/12/08 11:25:13;;;;;;;;;;;;;;;3.07;64.85;94338.34;4890922;29;19924;-77
2021/12/08 11:27:40;;;;;;;;;;;;;;;3.12;64.18;94347.06;4893158;29;19924;-77
2021/12/08 11:30:15;;;;;;;;;;;;;;;3.22;63.67;94338.94;4905836;29;19939;-77
2021/12/08 11:32:40;;;;;;;;;;;;;;;3.29;64.59;94342.31;4892919;29;19919;-78
2021/12/08 11:35:06;;;;;;;;;;;;;;;3.46;64.08;94348.63;4894200;29;19934;-78
2021/12/08 11:37:34;;;;;;;;;;;;;;;3.60;63.66;94345.06;4891777;29;20380;-78
2021/12/08 11:40:01;;;;;;;;;;;;;;;3.69;63.20;94352.56;4894759;29;20014;-78
2021/12/08 11:42:31;;;;;;;;;;;;;;;3.70;62.87;94349.00;4907904;29;19927;-78
2021/12/08 11:45:00;;;;;;;;;;;;;;;3.69;61.61;94362.84;4893774;29;19924;-78
2021/12/08 11:47:33;;;;;;;;;;;;;;;3.60;62.03;94345.06;4894083;29;19927;-78
2021/12/08 11:49:59;;;;;;;;;;;;;;;3.47;63.06;94350.22;4892395;29;19975;-77
2021/12/08 11:52:32;;;;;;;;;;;;;;;3.35;63.53;94341.53;4893233;29;19926;-78
2021/12/08 11:55:01;;;;;;;;;;;;;;;3.25;62.52;94348.81;4911208;29;19927;-77
2021/12/08 11:57:32;;;;;;;;;;;;;;;3.13;64.95;94351.22;4889664;29;19919;-78
2021/12/08 12:00:00;;;;;;;;;;;;;;;3.09;64.50;94351.78;4891481;29;19963;-78
2021/12/08 12:02:30;;;;;;;;;;;;;;;3.08;65.00;94350.19;4889261;29;19923;-77
2021/12/08 12:04:55;;;;;;;;;;;;;;;3.05;64.98;94346.25;4891215;29;20440;-78
2021/12/08 12:07:20;;;;;;;;;;;;;;;3.04;64.72;94354.94;4892853;29;19966;-78
2021/12/08 12:09:45;;;;;;;;;;;;;;;3.17;64.55;94360.09;4889317;29;20323;-78
2021/12/08 12:12:11;;;;;;;;;;;;;;;3.21;64.73;94360.50;4890727;29;19923;-78
2021/12/08 12:14:36;;;;;;;;;;;;;;;3.14;64.96;94359.72;4889932;29;19930;-77
2021/12/08 12:17:02;;;;;;;;;;;;;;;3.09;64.48;94365.44;4888996;29;19971;-77
2021/12/08 12:19:28;;;;;;;;;;;;;;;3.17;64.93;94361.88;4890439;29;19942;-76
2021/12/08 12:21:53;;;;;;;;;;;;;;;3.22;63.21;94362.84;4889334;29;19924;-77
2021/12/08 12:24:41;;;;;;;;;;;;;;;3.23;65.02;94363.66;4893338;29;19976;-78
2021/12/08 12:27:42;;;;;;;;;;;;;;;3.24;64.34;94363.44;4890358;29;19920;-78
2021/12/08 12:30:10;;;;;;;;;;;;;;;3.26;64.63;94363.28;4845573;29;19921;-78
2021/12/08 12:32:45;;;;;;;;;;;;;;;3.30;63.89;94359.31;4884992;29;20446;-78
2021/12/08 12:35:15;;;;;;;;;;;;;;;3.26;63.95;94358.13;4898112;29;19951;-78
2021/12/08 12:37:40;;;;;;;;;;;;;;;3.16;63.89;94368.00;4892534;29;20440;-78
2021/12/08 12:40:07;;;;;;;;;;;;;;;3.05;64.28;94360.88;4898275;29;19928;-78
2021/12/08 12:42:46;;;;;;;;;;;;;;;3.03;64.91;94365.41;4888382;29;20317;-77
2021/12/08 12:45:13;;;;;;;;;;;;;;;2.96;64.88;94368.78;4887965;29;19932;-78
2021/12/08 12:47:41;;;;;;;;;;;;;;;2.94;65.58;94375.09;4889428;29;19924;-78
2021/12/08 12:50:14;;;;;;;;;;;;;;;2.88;64.63;94375.88;4889037;29;20007;-77
2021/12/08 12:52:44;;;;;;;;;;;;;;;2.78;65.88;94386.53;4894176;29;19951;-78
2021/12/08 12:55:16;;;;;;;18.17;11.85;;;;;;;2.78;65.59;94381.41;4887846;29;19980;-78
2021/12/08 12:58:17;;;;;;;22.02;12.57;;;;;;;2.74;64.90;94377.59;4890578;29;20075;-78
2021/12/08 13:00:51;;;;;;;18.52;12.05;;;;;;;2.79;65.85;94382.97;4859190;29;20636;-78
2021/12/08 13:03:36;;;;;;;16.75;10.75;;;;;;;2.73;65.58;94381.16;4889185;29;20060;-78
2021/12/08 13:06:02;;;;;;;21.23;12.88;;;;;;;2.77;65.35;94384.94;4889050;29;20044;-78
2021/12/08 13:08:35;;;;;;;23.97;15.33;;;;;;;2.84;65.58;94380.59;4877568;29;20431;-78
2021/12/08 13:11:12;;;;;;;21.15;13.57;;;;;;;2.86;64.39;94388.91;4890091;29;20044;-77
2021/12/08 13:13:45;;;;;;;20.70;15.45;;;;;;;2.86;64.19;94390.69;4879095;29;20419;-77
2021/12/08 13:16:40;;;;;;;19.75;13.60;;;;;;;2.63;64.73;94383.31;4891249;29;20068;-77
2021/12/08 13:19:06;;;;;;;19.70;13.93;;;;;;;2.38;66.00;94386.38;4889337;29;20064;-77
2021/12/08 13:21:45;;;;;;;24.60;16.23;;;;;;;2.38;65.80;94381.25;4885017;29;20907;-77
2021/12/08 13:24:44;;;;;;;19.70;14.45;;;;;;;2.26;66.18;94395.59;4889026;29;20051;-77
2021/12/08 13:27:14;;;;;;;23.50;13.30;;;;;;;2.32;66.43;94396.63;4864782;29;20516;-77
2021/12/08 13:29:41;;;;;;;;;;;;;;;2.33;66.22;94393.88;4902255;29;20184;-77
2021/12/08 13:32:12;;;;;;;;;;;;;;;2.28;66.49;94392.88;4887658;29;20360;-77
2021/12/08 13:34:38;;;;;;;;;;;;;;;2.18;66.09;94395.78;4888849;29;19923;-77
2021/12/08 13:37:20;;;;;;;;;;;;;;;2.09;66.76;94404.59;4887535;29;19927;-77
2021/12/08 13:39:47;;;;;;;22.52;12.88;;;;;;;1.96;67.59;94399.41;4887394;29;20401;-78
2021/12/08 13:42:20;;;;;;;22.73;15.25;;;;;;;2.10;67.10;94401.03;4894655;29;20840;-77
2021/12/08 13:44:57;;;;;;;23.17;16.27;;;;;;;2.30;66.85;94393.47;4881040;29;20433;-78
2021/12/08 13:47:24;;;;;;;26.27;17.13;;;;;;;2.45;65.34;94381.28;4889689;29;20436;-77